createdAt,value
2023-04-26T00:02:00.531Z,101197.59
2023-04-26T00:04:29.085Z,101213.22
2023-04-26T00:06:56.452Z,101216.16
2023-04-26T00:09:23.452Z,101191.84
2023-04-26T00:11:50.361Z,101211.91
2023-04-26T00:14:17.439Z,101224.75
2023-04-26T00:16:44.510Z,101210.19
2023-04-26T00:19:11.896Z,101209.38
2023-04-26T00:21:39.977Z,101219.28
2023-04-26T00:24:07.846Z,101206.66
2023-04-26T00:26:35.403Z,101225.06
2023-04-26T00:29:04.251Z,101232.25
2023-04-26T00:31:31.254Z,101229.09
2023-04-26T00:33:58.216Z,101208.28
2023-04-26T00:36:25.186Z,101233.72
2023-04-26T00:38:53.189Z,101222.41
2023-04-26T00:41:20.443Z,101241.03
2023-04-26T00:43:47.364Z,101201.88
2023-04-26T00:46:14.404Z,101203.53
2023-04-26T00:48:41.458Z,101216.84
2023-04-26T00:51:08.545Z,101230.75
2023-04-26T00:53:35.837Z,101206.16
2023-04-26T00:56:03.507Z,101231.75
2023-04-26T00:58:30.704Z,101228.28
2023-04-26T01:00:58.330Z,101218.75
2023-04-26T01:03:26.594Z,101223.97
2023-04-26T01:05:54.461Z,101201.66
2023-04-26T01:08:22.205Z,101231.25
2023-04-26T01:10:50.445Z,101227.72
2023-04-26T01:13:17.819Z,101224.63
2023-04-26T01:15:48.516Z,101230.69
2023-04-26T01:18:15.687Z,101216.06
2023-04-26T01:20:43.075Z,101209.16
2023-04-26T01:23:11.738Z,101186.78
2023-04-26T01:25:39.313Z,101216.25
2023-04-26T01:28:06.389Z,101239.03
2023-04-26T01:30:33.300Z,101234.69
2023-04-26T01:33:03.671Z,101232.03
2023-04-26T01:35:30.737Z,101222.56
2023-04-26T01:37:57.765Z,101206.09
2023-04-26T01:40:24.745Z,101212.25
2023-04-26T01:42:51.644Z,101219.56
2023-04-26T01:45:18.598Z,101236.66
2023-04-26T01:48:18.035Z,101224.53
2023-04-26T01:50:45.211Z,101229.63
2023-04-26T01:53:13.770Z,101235.81
2023-04-26T01:55:41.773Z,101230.53
2023-04-26T01:58:09.730Z,101227.88
2023-04-26T02:00:37.200Z,101226.38
2023-04-26T02:03:04.379Z,101222.22
2023-04-26T02:05:31.341Z,101220.50
2023-04-26T02:07:58.277Z,101230.09
2023-04-26T02:10:25.218Z,101196.16
2023-04-26T02:12:52.224Z,101226.63
2023-04-26T02:15:20.002Z,101216.41
2023-04-26T02:17:46.994Z,101218.34
2023-04-26T02:20:14.428Z,101210.38
2023-04-26T02:22:41.337Z,101224.50
2023-04-26T02:25:08.731Z,101238.69
2023-04-26T02:27:35.724Z,101235.19
2023-04-26T02:30:03.489Z,101246.75
2023-04-26T02:32:31.048Z,101240.59
2023-04-26T02:34:58.207Z,101218.94
2023-04-26T02:37:26.666Z,101205.75
2023-04-26T02:39:53.841Z,101223.97
2023-04-26T02:42:21.473Z,101239.63
2023-04-26T02:44:48.602Z,101226.97
2023-04-26T02:47:15.805Z,101238.38
2023-04-26T02:49:42.811Z,101229.06
2023-04-26T02:52:09.949Z,101223.16
2023-04-26T02:54:37.886Z,101223.84
2023-04-26T02:57:05.156Z,101229.06
2023-04-26T02:59:32.440Z,101236.94
2023-04-26T03:01:59.557Z,101242.19
2023-04-26T03:04:26.564Z,101255.38
2023-04-26T03:06:54.395Z,101232.63
2023-04-26T03:09:22.178Z,101243.25
2023-04-26T03:11:50.322Z,101230.97
2023-04-26T03:14:17.991Z,101233.03
2023-04-26T03:16:45.948Z,101254.09
2023-04-26T03:19:12.999Z,101253.16
2023-04-26T03:21:40.771Z,101238.34
2023-04-26T03:24:07.780Z,101232.47
2023-04-26T03:26:34.782Z,101249.81
2023-04-26T03:29:02.776Z,101245.47
2023-04-26T03:31:29.887Z,101223.91
2023-04-26T03:33:56.933Z,101241.03
2023-04-26T03:36:23.969Z,101224.38
2023-04-26T03:38:51.757Z,101217.59
2023-04-26T03:41:19.660Z,101215.59
2023-04-26T03:43:46.893Z,101219.94
2023-04-26T03:46:13.874Z,101228.63
2023-04-26T03:48:40.833Z,101205.38
2023-04-26T03:51:07.929Z,101234.84
2023-04-26T03:53:35.089Z,101219.00
2023-04-26T03:56:02.033Z,101227.81
2023-04-26T03:58:30.648Z,101217.94
2023-04-26T04:01:00.881Z,101231.28
2023-04-26T04:03:30.085Z,101228.81
2023-04-26T04:05:57.265Z,101230.47
2023-04-26T04:08:24.205Z,101234.91
2023-04-26T04:10:51.458Z,101214.16
2023-04-26T04:13:18.448Z,101235.88
2023-04-26T04:15:45.419Z,101210.78
2023-04-26T04:18:12.474Z,101233.44
2023-04-26T04:20:41.358Z,101224.94
2023-04-26T04:23:08.484Z,101239.63
2023-04-26T04:25:36.548Z,101211.91
2023-04-26T04:28:08.504Z,101239.66
2023-04-26T04:30:35.715Z,101232.69
2023-04-26T04:33:03.594Z,101228.22
2023-04-26T04:35:33.665Z,101241.16
2023-04-26T04:38:03.307Z,101223.81
2023-04-26T04:40:30.735Z,101224.66
2023-04-26T04:43:00.957Z,101243.97
2023-04-26T04:45:28.668Z,101245.56
2023-04-26T04:47:57.457Z,101236.78
2023-04-26T04:50:26.576Z,101246.31
2023-04-26T04:52:53.541Z,101259.06
2023-04-26T04:55:20.784Z,101241.44
2023-04-26T04:57:48.053Z,101266.59
2023-04-26T05:00:16.053Z,101259.47
2023-04-26T05:02:48.030Z,101246.19
2023-04-26T05:05:16.090Z,101238.38
2023-04-26T05:07:43.472Z,101259.28
2023-04-26T05:10:11.444Z,101252.16
2023-04-26T05:12:38.784Z,101253.41
2023-04-26T05:15:07.818Z,101248.97
2023-04-26T05:17:34.757Z,101261.06
2023-04-26T05:20:11.519Z,101272.25
2023-04-26T05:22:39.781Z,101268.59
2023-04-26T05:25:08.514Z,101267.53
2023-04-26T05:27:36.779Z,101261.22
2023-04-26T05:30:22.538Z,101264.13
2023-04-26T05:33:00.676Z,101241.34
2023-04-26T05:35:36.349Z,101256.31
2023-04-26T05:38:03.853Z,101270.44
2023-04-26T05:40:32.300Z,101229.13
2023-04-26T05:42:59.890Z,101251.91
2023-04-26T05:45:27.961Z,101260.34
2023-04-26T05:47:54.969Z,101290.53
2023-04-26T05:50:21.992Z,101254.66
2023-04-26T05:52:48.974Z,101255.38
2023-04-26T05:55:16.091Z,101264.63
2023-04-26T05:57:43.350Z,101246.47
2023-04-26T06:00:11.365Z,101270.69
2023-04-26T06:02:41.281Z,101269.88
2023-04-26T06:05:13.738Z,101277.56
2023-04-26T06:07:41.701Z,101293.22
2023-04-26T06:10:09.170Z,101269.63
2023-04-26T06:12:38.416Z,101276.31
2023-04-26T06:15:06.645Z,101272.81
2023-04-26T06:17:34.873Z,101290.38
2023-04-26T06:20:02.665Z,101274.50
2023-04-26T06:22:29.516Z,101280.41
2023-04-26T06:24:56.573Z,101301.53
2023-04-26T06:27:23.498Z,101282.53
2023-04-26T06:29:51.204Z,101255.00
2023-04-26T06:32:18.689Z,101265.56
2023-04-26T06:34:45.743Z,101299.88
2023-04-26T06:37:12.909Z,101290.88
2023-04-26T06:39:42.752Z,101289.84
2023-04-26T06:42:11.516Z,101296.22
2023-04-26T06:45:01.518Z,101288.03
2023-04-26T06:47:28.567Z,101292.44
2023-04-26T06:49:56.559Z,101274.66
2023-04-26T06:52:23.459Z,101277.31
2023-04-26T06:54:57.135Z,101316.72
2023-04-26T06:57:24.746Z,101281.69
2023-04-26T06:59:51.749Z,101311.31
2023-04-26T07:02:18.763Z,101298.09
2023-04-26T07:04:45.955Z,101291.41
2023-04-26T07:07:14.341Z,101314.72
2023-04-26T07:09:41.689Z,101297.22
2023-04-26T07:12:11.446Z,101289.03
2023-04-26T07:14:41.421Z,101297.19
2023-04-26T07:17:08.821Z,101281.16
2023-04-26T07:19:36.061Z,101291.59
2023-04-26T07:22:03.585Z,101288.34
2023-04-26T07:24:30.718Z,101298.50
2023-04-26T07:26:57.866Z,101285.56
2023-04-26T07:29:24.859Z,101294.47
2023-04-26T07:31:51.874Z,101303.28
2023-04-26T07:34:19.448Z,101297.19
2023-04-26T07:36:46.395Z,101304.63
2023-04-26T07:39:15.438Z,101303.28
2023-04-26T07:41:43.854Z,101308.69
2023-04-26T07:44:11.447Z,101303.47
2023-04-26T07:46:38.638Z,101293.31
2023-04-26T07:49:05.850Z,101290.75
2023-04-26T07:51:33.326Z,101307.16
2023-04-26T07:54:00.252Z,101294.00
2023-04-26T07:56:27.204Z,101315.47
2023-04-26T07:58:54.274Z,101309.16
2023-04-26T08:01:21.178Z,101309.75
2023-04-26T08:03:49.173Z,101329.41
2023-04-26T08:06:16.815Z,101302.53
2023-04-26T08:08:50.421Z,101312.94
2023-04-26T08:11:18.017Z,101306.91
2023-04-26T08:13:45.168Z,101309.88
2023-04-26T08:16:12.521Z,101293.09
2023-04-26T08:18:39.511Z,101303.81
2023-04-26T08:21:06.559Z,101277.19
2023-04-26T08:23:38.197Z,101289.84
2023-04-26T08:26:06.324Z,101297.63
2023-04-26T08:28:33.317Z,101313.00
2023-04-26T08:31:00.387Z,101299.09
2023-04-26T08:33:27.362Z,101312.09
2023-04-26T08:35:54.357Z,101286.31
2023-04-26T08:38:22.814Z,101293.84
2023-04-26T08:40:51.879Z,101308.19
2023-04-26T08:43:18.847Z,101288.38
2023-04-26T08:45:47.158Z,101296.75
2023-04-26T08:48:16.124Z,101321.88
2023-04-26T08:50:47.836Z,101283.81
2023-04-26T08:53:19.454Z,101319.78
2023-04-26T08:55:49.449Z,101317.31
2023-04-26T08:58:18.642Z,101309.22
2023-04-26T09:00:46.315Z,101283.69
2023-04-26T09:03:13.899Z,101311.13
2023-04-26T09:05:45.165Z,101294.56
2023-04-26T09:08:19.189Z,101308.72
2023-04-26T09:10:46.367Z,101300.34
2023-04-26T09:13:14.379Z,101299.00
2023-04-26T09:15:41.857Z,101307.59
2023-04-26T09:18:23.701Z,101309.22
2023-04-26T09:21:09.514Z,101304.28
2023-04-26T09:23:36.701Z,101304.34
2023-04-26T09:26:17.216Z,101294.19
2023-04-26T09:28:44.359Z,101295.91
2023-04-26T09:31:11.349Z,101307.72
2023-04-26T09:33:59.197Z,101304.16
2023-04-26T09:36:26.275Z,101324.81
2023-04-26T09:38:53.432Z,101325.56
2023-04-26T09:41:20.679Z,101320.03
2023-04-26T09:43:51.083Z,101330.28
2023-04-26T09:46:26.291Z,101333.69
2023-04-26T09:49:03.408Z,101322.34
2023-04-26T09:51:30.410Z,101297.69
2023-04-26T09:53:57.349Z,101319.81
2023-04-26T09:56:24.322Z,101300.34
2023-04-26T09:59:00.807Z,101321.00
2023-04-26T10:01:29.759Z,101324.09
2023-04-26T10:04:04.550Z,101315.00
2023-04-26T10:06:32.939Z,101298.63
2023-04-26T10:09:01.759Z,101299.16
2023-04-26T10:11:29.659Z,101315.78
2023-04-26T10:13:56.650Z,101316.75
2023-04-26T10:16:24.556Z,101319.44
2023-04-26T10:18:52.568Z,101322.00
2023-04-26T10:21:35.252Z,101306.78
2023-04-26T10:24:02.968Z,101297.25
2023-04-26T10:26:56.910Z,101295.28
2023-04-26T10:29:25.919Z,101308.44
2023-04-26T10:32:09.645Z,101302.44
2023-04-26T10:34:37.610Z,101310.22
2023-04-26T10:37:08.866Z,101305.19
2023-04-26T10:39:39.345Z,101293.19
2023-04-26T10:42:28.068Z,101296.19
2023-04-26T10:45:19.046Z,101304.44
2023-04-26T10:47:47.034Z,101283.19
2023-04-26T10:50:13.962Z,101289.31
2023-04-26T10:53:03.905Z,101297.22
2023-04-26T10:55:41.513Z,101274.03
2023-04-26T10:58:35.010Z,101282.94
2023-04-26T11:01:21.130Z,101274.78
2023-04-26T11:04:13.052Z,101281.56
2023-04-26T11:06:57.832Z,101271.91
2023-04-26T11:09:41.722Z,101265.41
2023-04-26T11:12:13.783Z,101279.16
2023-04-26T11:14:46.236Z,101290.81
2023-04-26T11:17:13.864Z,101284.00
2023-04-26T11:19:47.077Z,101269.19
2023-04-26T11:22:14.063Z,101259.59
2023-04-26T11:24:41.131Z,101260.34
2023-04-26T11:27:12.160Z,101259.06
2023-04-26T11:29:39.571Z,101256.22
2023-04-26T11:32:07.213Z,101250.28
2023-04-26T11:34:35.952Z,101247.06
2023-04-26T11:37:04.822Z,101250.28
2023-04-26T11:39:36.941Z,101272.38
2023-04-26T11:42:12.544Z,101281.38
2023-04-26T11:44:41.051Z,101283.50
2023-04-26T11:47:09.347Z,101278.13
2023-04-26T11:49:37.883Z,101267.84
2023-04-26T11:52:06.460Z,101263.19
2023-04-26T11:54:36.030Z,101272.34
2023-04-26T11:57:17.226Z,101273.97
2023-04-26T11:59:45.905Z,101264.63
2023-04-26T12:02:13.181Z,101271.31
2023-04-26T12:04:41.298Z,101277.91
2023-04-26T12:07:08.663Z,101286.78
2023-04-26T12:09:36.730Z,101282.78
2023-04-26T12:12:06.311Z,101268.63
2023-04-26T12:14:37.947Z,101263.22
2023-04-26T12:17:07.489Z,101302.72
2023-04-26T12:19:39.509Z,101280.19
2023-04-26T12:22:08.240Z,101287.13
2023-04-26T12:24:38.478Z,101287.06
2023-04-26T12:27:07.807Z,101298.53
2023-04-26T12:29:35.608Z,101278.31
2023-04-26T12:32:04.043Z,101298.66
2023-04-26T12:34:31.396Z,101274.38
2023-04-26T12:36:58.659Z,101272.81
2023-04-26T12:39:25.691Z,101273.34
2023-04-26T12:41:52.973Z,101284.78
2023-04-26T12:44:22.125Z,101284.44
2023-04-26T12:46:50.200Z,101285.84
2023-04-26T12:49:17.171Z,101272.34
2023-04-26T12:51:44.073Z,101282.19
2023-04-26T12:54:11.152Z,101272.84
2023-04-26T12:56:43.589Z,101273.88
2023-04-26T12:59:10.692Z,101271.75
2023-04-26T13:01:37.715Z,101274.75
2023-04-26T13:04:05.853Z,101268.78
2023-04-26T13:06:33.247Z,101261.88
2023-04-26T13:09:00.505Z,101268.34
2023-04-26T13:11:27.398Z,101280.09
2023-04-26T13:13:54.749Z,101265.25
2023-04-26T13:16:21.875Z,101259.72
2023-04-26T13:18:48.854Z,101272.63
2023-04-26T13:21:15.770Z,101266.69
2023-04-26T13:23:42.770Z,101280.53
2023-04-26T13:26:09.676Z,101264.56
2023-04-26T13:28:37.206Z,101260.03
2023-04-26T13:31:04.341Z,101251.34
2023-04-26T13:33:31.518Z,101280.41
2023-04-26T13:35:58.510Z,101260.63
2023-04-26T13:38:26.872Z,101285.38
2023-04-26T13:40:54.215Z,101264.84
2023-04-26T13:43:21.164Z,101282.66
2023-04-26T13:45:48.100Z,101289.41
2023-04-26T13:48:15.322Z,101295.13
2023-04-26T13:50:42.626Z,101284.69
2023-04-26T13:53:09.596Z,101275.81
2023-04-26T13:55:36.757Z,101307.78
2023-04-26T13:58:03.722Z,101285.28
2023-04-26T14:00:31.107Z,101306.81
2023-04-26T14:02:58.260Z,101295.28
2023-04-26T14:05:25.688Z,101312.56
2023-04-26T14:07:54.966Z,101312.97
2023-04-26T14:10:22.262Z,101288.94
2023-04-26T14:12:49.291Z,101295.75
2023-04-26T14:15:16.638Z,101330.94
2023-04-26T14:17:43.633Z,101305.88
2023-04-26T14:20:11.128Z,101335.09
2023-04-26T14:22:38.233Z,101317.03
2023-04-26T14:25:05.897Z,101330.47
2023-04-26T14:27:33.466Z,101337.59
2023-04-26T14:30:00.407Z,101321.63
2023-04-26T14:32:27.372Z,101344.88
2023-04-26T14:34:54.340Z,101315.22
2023-04-26T14:37:22.863Z,101333.16
2023-04-26T14:39:50.778Z,101336.44
2023-04-26T14:42:17.814Z,101333.53
2023-04-26T14:44:46.397Z,101342.69
2023-04-26T14:47:13.524Z,101332.88
2023-04-26T14:49:41.111Z,101322.41
2023-04-26T14:52:07.971Z,101325.13
2023-04-26T14:54:39.337Z,101327.06
2023-04-26T14:57:06.396Z,101316.75
2023-04-26T14:59:33.888Z,101331.28
2023-04-26T15:02:01.043Z,101315.38
2023-04-26T15:04:28.240Z,101324.47
2023-04-26T15:06:56.571Z,101327.75
2023-04-26T15:09:23.638Z,101342.56
2023-04-26T15:11:50.626Z,101317.09
2023-04-26T15:14:17.531Z,101326.63
2023-04-26T15:16:45.274Z,101321.44
2023-04-26T15:19:12.224Z,101328.28
2023-04-26T15:21:39.242Z,101324.41
2023-04-26T15:24:07.725Z,101299.06
2023-04-26T15:26:35.178Z,101315.56
2023-04-26T15:29:02.639Z,101329.81
2023-04-26T15:31:29.616Z,101330.22
2023-04-26T15:33:56.847Z,101309.91
2023-04-26T15:36:23.786Z,101308.06
2023-04-26T15:38:50.684Z,101330.78
2023-04-26T15:41:17.595Z,101312.91
2023-04-26T15:43:44.506Z,101310.63
2023-04-26T15:46:14.893Z,101329.56
2023-04-26T15:48:42.078Z,101327.31
2023-04-26T15:51:08.988Z,101340.53
2023-04-26T15:53:39.227Z,101333.69
2023-04-26T15:56:19.618Z,101327.50
2023-04-26T15:58:47.239Z,101333.56
2023-04-26T16:01:15.047Z,101317.91
2023-04-26T16:03:45.594Z,101325.09
2023-04-26T16:06:14.459Z,101328.09
2023-04-26T16:08:41.498Z,101318.66
2023-04-26T16:11:08.513Z,101324.66
2023-04-26T16:13:35.562Z,101328.25
2023-04-26T16:16:06.754Z,101330.47
2023-04-26T16:18:34.526Z,101327.91
2023-04-26T16:21:06.489Z,101338.47
2023-04-26T16:23:33.491Z,101320.22
2023-04-26T16:26:00.423Z,101295.44
2023-04-26T16:28:27.736Z,101336.13
2023-04-26T16:30:55.062Z,101318.97
2023-04-26T16:33:23.255Z,101329.59
2023-04-26T16:35:55.147Z,101321.63
2023-04-26T16:38:22.976Z,101320.75
2023-04-26T16:41:01.528Z,101306.09
2023-04-26T16:43:30.283Z,101311.97
2023-04-26T16:46:02.671Z,101306.09
2023-04-26T16:48:34.752Z,101303.78
2023-04-26T16:51:07.613Z,101318.69
2023-04-26T16:53:36.007Z,101325.50
2023-04-26T16:56:03.292Z,101326.06
2023-04-26T16:58:30.365Z,101308.56
2023-04-26T17:00:58.120Z,101327.25
2023-04-26T17:03:25.362Z,101319.06
2023-04-26T17:05:52.797Z,101330.34
2023-04-26T17:08:20.074Z,101323.94
2023-04-26T17:10:47.530Z,101330.34
2023-04-26T17:13:14.474Z,101339.13
2023-04-26T17:15:42.651Z,101315.13
2023-04-26T17:18:10.095Z,101340.25
2023-04-26T17:20:37.331Z,101324.00
2023-04-26T17:23:04.599Z,101331.69
2023-04-26T17:25:31.731Z,101347.69
2023-04-26T17:27:59.223Z,101343.31
2023-04-26T17:30:26.298Z,101335.72
2023-04-26T17:32:53.452Z,101340.47
2023-04-26T17:35:20.581Z,101352.34
2023-04-26T17:37:49.965Z,101335.84
2023-04-26T17:40:18.118Z,101367.00
2023-04-26T17:42:46.314Z,101328.38
2023-04-26T17:45:14.448Z,101332.34
2023-04-26T17:47:42.921Z,101344.72
2023-04-26T17:50:10.779Z,101327.25
2023-04-26T17:52:38.270Z,101360.88
2023-04-26T17:55:08.129Z,101339.84
2023-04-26T17:57:35.564Z,101361.44
2023-04-26T18:00:03.764Z,101361.53
2023-04-26T18:02:36.277Z,101359.75
2023-04-26T18:05:05.086Z,101351.13
2023-04-26T18:07:32.064Z,101359.16
2023-04-26T18:09:58.980Z,101348.75
2023-04-26T18:12:26.034Z,101343.56
2023-04-26T18:14:53.007Z,101363.69
2023-04-26T18:17:20.004Z,101353.66
2023-04-26T18:19:47.115Z,101362.81
2023-04-26T18:22:14.028Z,101364.31
2023-04-26T18:24:40.969Z,101355.03
2023-04-26T18:27:07.904Z,101377.69
2023-04-26T18:29:35.041Z,101361.44
2023-04-26T18:32:01.984Z,101373.03
2023-04-26T18:34:28.901Z,101378.97
2023-04-26T18:36:55.880Z,101386.03
2023-04-26T18:39:22.833Z,101375.78
2023-04-26T18:41:52.039Z,101383.25
2023-04-26T18:44:19.281Z,101385.56
2023-04-26T18:46:46.679Z,101383.75
2023-04-26T18:49:13.740Z,101384.72
2023-04-26T18:51:40.659Z,101385.72
2023-04-26T18:54:07.733Z,101371.59
2023-04-26T18:56:34.600Z,101356.63
2023-04-26T18:59:01.799Z,101370.81
2023-04-26T19:01:28.930Z,101370.81
2023-04-26T19:03:56.951Z,101376.03
2023-04-26T19:06:23.967Z,101376.63
2023-04-26T19:08:51.602Z,101374.41
2023-04-26T19:11:18.583Z,101390.94
2023-04-26T19:13:45.497Z,101388.50
2023-04-26T19:16:12.563Z,101387.75
2023-04-26T19:18:44.197Z,101398.06
2023-04-26T19:21:11.945Z,101387.69
2023-04-26T19:23:38.913Z,101391.53
2023-04-26T19:26:08.435Z,101401.38
2023-04-26T19:28:37.468Z,101414.78
2023-04-26T19:31:04.460Z,101392.38
2023-04-26T19:33:32.446Z,101410.44
2023-04-26T19:35:59.468Z,101380.75
2023-04-26T19:38:26.449Z,101387.09
2023-04-26T19:40:53.429Z,101397.31
2023-04-26T19:43:20.906Z,101416.03
2023-04-26T19:45:48.077Z,101380.28
2023-04-26T19:48:15.108Z,101396.66
2023-04-26T19:50:44.947Z,101398.34
2023-04-26T19:53:14.389Z,101411.03
2023-04-26T19:55:42.407Z,101399.44
2023-04-26T19:58:12.467Z,101407.03
2023-04-26T20:00:40.267Z,101403.97
2023-04-26T20:03:07.398Z,101356.81
2023-04-26T20:05:34.868Z,101401.81
2023-04-26T20:08:02.507Z,101413.91
2023-04-26T20:10:34.183Z,101393.66
2023-04-26T20:13:02.665Z,101406.84
2023-04-26T20:15:32.247Z,101408.94
2023-04-26T20:18:02.294Z,101392.78
2023-04-26T20:20:29.373Z,101400.25
2023-04-26T20:22:56.327Z,101400.16
2023-04-26T20:25:23.449Z,101418.75
2023-04-26T20:27:50.428Z,101416.03
2023-04-26T20:30:17.369Z,101427.84
2023-04-26T20:32:44.430Z,101414.09
2023-04-26T20:35:13.557Z,101421.78
2023-04-26T20:37:40.617Z,101417.47
2023-04-26T20:40:08.455Z,101432.50
2023-04-26T20:42:35.459Z,101429.16
2023-04-26T20:45:03.787Z,101418.88
2023-04-26T20:47:31.229Z,101435.31
2023-04-26T20:49:58.165Z,101434.50
2023-04-26T20:52:25.166Z,101429.03
2023-04-26T20:54:52.101Z,101439.47
2023-04-26T20:57:19.348Z,101421.44
2023-04-26T20:59:46.281Z,101437.06
2023-04-26T21:02:13.475Z,101432.38
2023-04-26T21:04:42.235Z,101419.19
2023-04-26T21:07:10.436Z,101438.94
2023-04-26T21:09:37.580Z,101443.56
2023-04-26T21:12:05.500Z,101419.56
2023-04-26T21:14:32.470Z,101451.97
2023-04-26T21:17:01.072Z,101453.88
2023-04-26T21:19:29.029Z,101452.06
2023-04-26T21:21:56.655Z,101432.91
2023-04-26T21:24:23.581Z,101438.41
2023-04-26T21:26:50.534Z,101428.75
2023-04-26T21:29:17.422Z,101430.19
2023-04-26T21:31:44.484Z,101455.84
2023-04-26T21:34:11.547Z,101446.34
2023-04-26T21:36:38.481Z,101439.97
2023-04-26T21:39:05.629Z,101427.53
2023-04-26T21:41:32.548Z,101435.44
2023-04-26T21:43:59.619Z,101443.56
2023-04-26T21:46:26.820Z,101448.91
2023-04-26T21:48:54.136Z,101446.63
2023-04-26T21:51:21.106Z,101449.16
2023-04-26T21:53:48.061Z,101426.31
2023-04-26T21:56:15.094Z,101437.22
2023-04-26T21:58:42.384Z,101458.78
2023-04-26T22:01:15.051Z,101449.25
2023-04-26T22:03:42.299Z,101427.84
2023-04-26T22:06:09.812Z,101447.38
2023-04-26T22:08:37.003Z,101448.44
2023-04-26T22:11:04.092Z,101443.75
2023-04-26T22:13:32.238Z,101441.16
2023-04-26T22:15:59.212Z,101455.63
2023-04-26T22:18:27.026Z,101462.09
2023-04-26T22:20:54.108Z,101435.72
2023-04-26T22:23:21.181Z,101447.66
2023-04-26T22:25:48.058Z,101445.66
2023-04-26T22:28:16.309Z,101431.19
2023-04-26T22:30:43.252Z,101448.63
2023-04-26T22:33:12.055Z,101431.25
2023-04-26T22:35:39.137Z,101472.41
2023-04-26T22:38:06.195Z,101455.34
2023-04-26T22:40:33.188Z,101470.19
2023-04-26T22:43:00.187Z,101476.94
2023-04-26T22:45:27.230Z,101467.72
2023-04-26T22:47:54.303Z,101471.41
2023-04-26T22:50:21.879Z,101487.19
2023-04-26T22:52:49.699Z,101477.53
2023-04-26T22:55:17.316Z,101469.28
2023-04-26T22:57:45.012Z,101479.16
2023-04-26T23:00:14.101Z,101466.47
2023-04-26T23:02:41.112Z,101474.13
2023-04-26T23:05:11.648Z,101482.34
2023-04-26T23:07:39.808Z,101484.50
2023-04-26T23:10:07.609Z,101487.31
2023-04-26T23:12:36.010Z,101490.84
2023-04-26T23:15:05.003Z,101482.88
2023-04-26T23:17:34.018Z,101495.09
2023-04-26T23:20:01.365Z,101473.63
2023-04-26T23:22:28.276Z,101463.91
2023-04-26T23:24:55.520Z,101482.38
2023-04-26T23:27:24.314Z,101484.59
2023-04-26T23:29:51.714Z,101478.38
2023-04-26T23:32:18.638Z,101488.75
2023-04-26T23:34:45.622Z,101487.72
2023-04-26T23:37:12.534Z,101475.06
2023-04-26T23:39:39.457Z,101476.47
2023-04-26T23:42:06.596Z,101481.00
2023-04-26T23:44:33.519Z,101493.84
2023-04-26T23:47:00.507Z,101473.63
2023-04-26T23:49:27.757Z,101489.41
2023-04-26T23:51:54.808Z,101474.09
2023-04-26T23:54:21.722Z,101500.75
2023-04-26T23:56:48.710Z,101510.81
2023-04-26T23:59:16.783Z,101491.34
